메인 페이지
METAR-TAF:

METAR-TAF

공항 :

카불 국제공항

카불, 아프가니스탄

위도: 34-38N, 경도: 069-12E, 고도: 1789m

현재 날씨관측

예보는 44분 전, 09:50시(UTC)에 발표되었습니다.
여러 방향의 바람 2kt
온도 17°C
습도 20%
기압 1022 hPa
시정 10km 이상
고도 9000ft 상공 구름 조금

METAR: OAKB 160950Z VRB02KT 9999 FEW090 17/M06 Q1022 NOSIG RMK A3018 BLU BLU

시각: 15:04 (10:34 UTC)

예보

예보는 5 시간 29분 전, 05:05시(UTC)에 발표되었습니다.
예보 대상 시간: 16일 06시부터 17일 06시까지 (UTC)
여러 방향의 바람 2kt
시정: 8000m
고도 10000ft 상공 구름 조금
전환 중
16일 08시부터 16일 10시까지 (UTC)
12kt, 순간 최대 풍속 22kt
시정 10km 이상
고도 10000ft 상공 구름 보통
전환 중
16일 15시부터 16일 17시까지 (UTC)
여러 방향의 바람 2kt
시정: 6000m
일시적
16일 17시부터 16일 21시까지 (UTC)
시정: 4000m
연기
일시적
17일 02시부터 17일 06시까지 (UTC)
시정: 4000m
연기

TAF: OAKB 160505Z 1606/1706 VRB02KT 8000 FEW100 BECMG 1608/1610 36012G22KT 9999 SCT100 BECMG 1615/1617 VRB02KT 6000 NSC TEMPO 1617/1621 4000 FU TEMPO 1702/1706 4000 FU

4,000개 이상의 공항 관측 자료 및 예보 (METAR 및 TAF 보고).

지도상에서 검색 가능한 기상관측소가 노란 점과 빨간 점으로 표시되어 있습니다.

기상관측소 명을 보려면 표시 위로 마우스를 이동하세요.

날씨 관측과 예보를 보려면 클릭하세요.

지도 변경 : 확대하려면 엑스 표시가 있는 녹색 버튼, 축소하려면 빼기 표시가 있는 녹색 버튼, 다음 페이지의 지도를 보려면 녹색 화살표를 클릭하세요.


METAR-TAF: